Time,TemperatureF,DewpointF,PressureIn,WindDirection,WindDirectionDegrees,WindSpeedMPH,WindSpeedGustMPH,Humidity,HourlyPrecipIn,Conditions,Clouds,dailyrainin,SolarRadiationWatts/m^2,SoftwareType,DateUTC
2013-02-24 00:02:00,19.0,11.8,30.18,SSW,212,0.0,0.0,73,0.00,,,0.00,0,Wunderground v.1.15,2013-02-24 07:02:00,
2013-02-24 00:08:00,18.1,10.3,30.18,SSW,212,0.0,0.0,71,0.00,,,0.00,0,Wunderground v.1.15,2013-02-24 07:08:00,
2013-02-24 00:14:00,17.4,9.9,30.18,SSW,212,0.0,0.0,72,0.00,,,0.00,0,Wunderground v.1.15,2013-02-24 07:14:00,
2013-02-24 00:20:00,17.7,10.2,30.18,SSW,212,0.0,0.0,72,0.00,,,0.00,0,Wunderground v.1.15,2013-02-24 07:20:00,
2013-02-24 00:26:00,17.9,10.7,30.18,SSW,212,0.0,0.0,73,0.00,,,0.00,0,Wunderground v.1.15,2013-02-24 07:26:00,
2013-02-24 00:32:00,18.6,10.8,30.19,SSW,212,0.0,0.0,71,0.00,,,0.00,0,Wunderground v.1.15,2013-02-24 07:32:00,
2013-02-24 00:38:00,17.9,9.4,30.19,SSW,212,0.0,0.0,69,0.00,,,0.00,0,Wunderground v.1.15,2013-02-24 07:38:00,
2013-02-24 00:44:00,17.3,9.2,30.19,SSW,212,0.0,0.0,70,0.00,,,0.00,0,Wunderground v.1.15,2013-02-24 07:44:00,
2013-02-24 00:50:00,15.9,7.5,30.19,SSW,212,0.0,0.0,69,0.00,,,0.00,0,Wunderground v.1.15,2013-02-24 07:50:00,
2013-02-24 00:56:00,15.9,9.1,30.20,SSW,212,0.0,0.0,74,0.00,,,0.00,0,Wunderground v.1.15,2013-02-24 07:56:00,
2013-02-24 01:02:00,16.7,9.2,30.20,SSW,205,0.0,2.0,72,0.00,,,0.00,0,Wunderground v.1.15,2013-02-24 08:02:00,
2013-02-24 01:08:00,17.9,10.4,30.20,SSW,205,0.0,2.0,72,0.00,,,0.00,0,Wunderground v.1.15,2013-02-24 08:08:00,
2013-02-24 01:14:00,17.9,9.8,30.20,South,188,1.0,6.0,70,0.00,,,0.00,0,Wunderground v.1.15,2013-02-24 08:14:00,
2013-02-24 01:20:00,18.2,9.7,30.20,SW,214,2.0,2.0,69,0.00,,,0.00,0,Wunderground v.1.15,2013-02-24 08:20:00,
2013-02-24 01:26:00,18.4,9.6,30.21,SW,214,1.0,2.0,68,0.00,,,0.00,0,Wunderground v.1.15,2013-02-24 08:26:00,
2013-02-24 01:32:00,17.4,8.0,30.21,SW,214,0.0,0.0,66,0.00,,,0.00,0,Wunderground v.1.15,2013-02-24 08:32:00,
2013-02-24 01:40:00,17.7,8.9,30.22,SW,214,0.0,0.0,68,0.00,,,0.00,0,Wunderground v.1.15,2013-02-24 08:40:00,
2013-02-24 01:46:00,18.3,8.8,30.22,SW,214,0.0,0.0,66,0.00,,,0.00,0,Wunderground v.1.15,2013-02-24 08:46:00,
2013-02-24 01:52:00,17.6,7.8,30.22,SW,214,0.0,0.0,65,0.00,,,0.00,0,Wunderground v.1.15,2013-02-24 08:52:00,
2013-02-24 01:58:00,17.7,7.9,30.22,SW,214,0.0,0.0,65,0.00,,,0.00,0,Wunderground v.1.15,2013-02-24 08:58:00,
2013-02-24 02:04:00,17.6,7.8,30.22,SW,214,0.0,0.0,65,0.00,,,0.00,0,Wunderground v.1.15,2013-02-24 09:04:00,
2013-02-24 02:10:00,17.7,7.9,30.22,SW,214,0.0,0.0,65,0.00,,,0.00,0,Wunderground v.1.15,2013-02-24 09:10:00,
2013-02-24 02:16:00,17.4,8.6,30.23,SW,214,0.0,0.0,68,0.00,,,0.00,0,Wunderground v.1.15,2013-02-24 09:16:00,
2013-02-24 02:24:00,17.3,7.5,30.23,SW,214,0.0,0.0,65,0.00,,,0.00,0,Wunderground v.1.15,2013-02-24 09:24:00,
2013-02-24 02:30:00,16.5,7.4,30.23,SW,214,0.0,0.0,67,0.00,,,0.00,0,Wunderground v.1.15,2013-02-24 09:30:00,
2013-02-24 02:36:00,16.9,8.2,30.23,SW,214,0.0,0.0,68,0.00,,,0.00,0,Wunderground v.1.15,2013-02-24 09:36:00,
2013-02-24 02:42:00,18.0,9.2,30.23,SW,214,0.0,0.0,68,0.00,,,0.00,0,Wunderground v.1.15,2013-02-24 09:42:00,
2013-02-24 02:48:00,18.2,8.1,30.23,SW,214,0.0,0.0,64,0.00,,,0.00,0,Wunderground v.1.15,2013-02-24 09:48:00,
2013-02-24 02:54:00,18.5,8.3,30.24,SW,214,0.0,0.0,64,0.00,,,0.00,0,Wunderground v.1.15,2013-02-24 09:54:00,
2013-02-24 03:00:00,18.2,8.7,30.24,SW,214,0.0,0.0,66,0.00,,,0.00,0,Wunderground v.1.15,2013-02-24 10:00:00,
2013-02-24 03:06:00,17.4,7.6,30.24,SSW,207,0.0,0.0,65,0.00,,,0.00,0,Wunderground v.1.15,2013-02-24 10:06:00,
2013-02-24 03:12:00,16.9,8.2,30.24,SSW,192,0.0,0.0,68,0.00,,,0.00,0,Wunderground v.1.15,2013-02-24 10:12:00,
2013-02-24 03:18:00,17.0,8.6,30.25,South,191,0.0,0.0,69,0.00,,,0.00,0,Wunderground v.1.15,2013-02-24 10:18:00,
2013-02-24 03:26:00,17.1,8.7,30.25,East,81,2.0,3.0,69,0.00,,,0.00,0,Wunderground v.1.15,2013-02-24 10:26:00,
2013-02-24 03:32:00,16.7,8.6,30.25,East,81,1.0,2.0,70,0.00,,,0.00,0,Wunderground v.1.15,2013-02-24 10:32:00,
2013-02-24 03:38:00,15.9,7.8,30.26,East,81,0.0,2.0,70,0.00,,,0.00,0,Wunderground v.1.15,2013-02-24 10:38:00,
2013-02-24 03:44:00,14.5,7.4,30.26,East,81,0.0,0.0,73,0.00,,,0.00,0,Wunderground v.1.15,2013-02-24 10:44:00,
2013-02-24 03:52:00,13.5,7.3,30.26,East,96,1.0,1.0,76,0.00,,,0.00,0,Wunderground v.1.15,2013-02-24 10:52:00,
2013-02-24 03:58:00,13.3,7.7,30.27,East,96,0.0,1.0,78,0.00,,,0.00,0,Wunderground v.1.15,2013-02-24 10:58:00,
2013-02-24 04:06:00,13.3,8.0,30.27,ESE,106,1.0,4.0,79,0.00,,,0.00,0,Wunderground v.1.15,2013-02-24 11:06:00,
2013-02-24 04:14:00,13.5,8.2,30.27,ESE,106,2.0,2.0,79,0.00,,,0.00,0,Wunderground v.1.15,2013-02-24 11:14:00,
2013-02-24 04:22:00,13.2,8.2,30.27,ESE,106,0.0,3.0,80,0.00,,,0.00,0,Wunderground v.1.15,2013-02-24 11:22:00,
2013-02-24 04:28:00,13.3,8.3,30.27,ESE,106,2.0,3.0,80,0.00,,,0.00,0,Wunderground v.1.15,2013-02-24 11:28:00,
2013-02-24 04:34:00,13.4,8.4,30.27,ESE,106,3.0,4.0,80,0.00,,,0.00,0,Wunderground v.1.15,2013-02-24 11:34:00,
2013-02-24 04:40:00,13.4,7.8,30.27,ESE,106,3.0,3.0,78,0.00,,,0.00,0,Wunderground v.1.15,2013-02-24 11:40:00,
2013-02-24 04:46:00,13.2,7.9,30.28,ESE,106,3.0,3.0,79,0.00,,,0.00,0,Wunderground v.1.15,2013-02-24 11:46:00,
2013-02-24 04:52:00,13.1,7.8,30.28,ESE,106,3.0,5.0,79,0.00,,,0.00,0,Wunderground v.1.15,2013-02-24 11:52:00,
2013-02-24 04:58:00,12.7,7.4,30.28,ESE,106,3.0,5.0,79,0.00,,,0.00,0,Wunderground v.1.15,2013-02-24 11:58:00,
2013-02-24 05:06:00,12.1,6.8,30.29,ESE,114,4.0,4.0,79,0.00,,,0.00,0,Wunderground v.1.15,2013-02-24 12:06:00,
2013-02-24 05:12:00,11.8,6.8,30.29,ESE,114,4.0,5.0,80,0.00,,,0.00,0,Wunderground v.1.15,2013-02-24 12:12:00,
2013-02-24 05:20:00,11.4,6.2,30.29,ENE,78,4.0,4.0,79,0.00,,,0.00,0,Wunderground v.1.15,2013-02-24 12:20:00,
2013-02-24 05:26:00,11.0,5.5,30.30,ENE,78,4.0,4.0,78,0.00,,,0.00,0,Wunderground v.1.15,2013-02-24 12:26:00,
2013-02-24 05:32:00,10.8,5.3,30.30,East,82,5.0,8.0,78,0.00,,,0.00,0,Wunderground v.1.15,2013-02-24 12:32:00,
2013-02-24 05:38:00,10.4,4.9,30.30,East,79,5.0,8.0,78,0.00,,,0.00,0,Wunderground v.1.15,2013-02-24 12:38:00,
2013-02-24 05:44:00,10.4,5.5,30.31,ESE,122,4.0,7.0,80,0.00,,,0.00,0,Wunderground v.1.15,2013-02-24 12:44:00,
2013-02-24 05:50:00,10.9,6.2,30.31,ENE,76,5.0,5.0,81,0.00,,,0.00,0,Wunderground v.1.15,2013-02-24 12:50:00,
2013-02-24 05:56:00,11.1,6.1,30.31,East,101,5.0,6.0,80,0.00,,,0.00,0,Wunderground v.1.15,2013-02-24 12:56:00,
2013-02-24 06:02:00,11.1,6.1,30.31,East,82,5.0,6.0,80,0.00,,,0.00,0,Wunderground v.1.15,2013-02-24 13:02:00,
2013-02-24 06:08:00,11.1,6.1,30.31,SE,127,6.0,8.0,80,0.00,,,0.00,0,Wunderground v.1.15,2013-02-24 13:08:00,
2013-02-24 06:14:00,11.4,6.4,30.32,ESE,122,7.0,9.0,80,0.00,,,0.00,0,Wunderground v.1.15,2013-02-24 13:14:00,
2013-02-24 06:20:00,11.4,6.4,30.32,East,90,5.0,5.0,80,0.00,,,0.00,0,Wunderground v.1.15,2013-02-24 13:20:00,
2013-02-24 06:26:00,11.6,6.3,30.31,ENE,76,4.0,7.0,79,0.00,,,0.00,0,Wunderground v.1.15,2013-02-24 13:26:00,
2013-02-24 06:32:00,11.7,7.0,30.31,NE,55,4.0,6.0,81,0.00,,,0.00,0,Wunderground v.1.15,2013-02-24 13:32:00,
2013-02-24 06:38:00,13.0,8.5,30.32,ENE,57,5.0,7.0,82,0.00,,,0.00,0,Wunderground v.1.15,2013-02-24 13:38:00,
2013-02-24 06:44:00,14.0,8.1,30.31,East,82,4.0,5.0,77,0.00,,,0.00,0,Wunderground v.1.15,2013-02-24 13:44:00,
2013-02-24 06:50:00,13.5,7.0,30.32,ESE,118,4.0,4.0,75,0.00,,,0.00,0,Wunderground v.1.15,2013-02-24 13:50:00,
2013-02-24 06:56:00,12.6,6.5,30.32,East,80,4.0,4.0,76,0.00,,,0.00,0,Wunderground v.1.15,2013-02-24 13:56:00,
2013-02-24 07:02:00,12.7,6.9,30.32,SE,126,5.0,5.0,77,0.00,,,0.00,0,Wunderground v.1.15,2013-02-24 14:02:00,
2013-02-24 07:08:00,12.5,6.1,30.32,ESE,113,5.0,8.0,75,0.00,,,0.00,0,Wunderground v.1.15,2013-02-24 14:08:00,
2013-02-24 07:16:00,11.7,5.6,30.32,East,88,5.0,6.0,76,0.00,,,0.00,5,Wunderground v.1.15,2013-02-24 14:16:00,
2013-02-24 07:22:00,11.8,6.3,30.32,ENE,58,5.0,5.0,78,0.00,,,0.00,7,Wunderground v.1.15,2013-02-24 14:22:00,
2013-02-24 07:28:00,12.5,6.9,30.32,ENE,73,4.0,5.0,78,0.00,,,0.00,11,Wunderground v.1.15,2013-02-24 14:28:00,
2013-02-24 07:34:00,13.3,7.1,30.32,East,94,4.0,4.0,76,0.00,,,0.00,14,Wunderground v.1.15,2013-02-24 14:34:00,
2013-02-24 07:42:00,13.0,6.3,30.33,ESE,116,3.0,3.0,74,0.00,,,0.00,16,Wunderground v.1.15,2013-02-24 14:42:00,
2013-02-24 07:48:00,12.5,5.8,30.33,ESE,123,3.0,5.0,74,0.00,,,0.00,19,Wunderground v.1.15,2013-02-24 14:48:00,
2013-02-24 07:54:00,11.9,5.5,30.33,East,92,3.0,5.0,75,0.00,,,0.00,33,Wunderground v.1.15,2013-02-24 14:54:00,
2013-02-24 08:00:00,11.8,6.0,30.33,ESE,123,3.0,6.0,77,0.00,,,0.00,98,Wunderground v.1.15,2013-02-24 15:00:00,
2013-02-24 08:06:00,12.2,6.7,30.34,ESE,118,4.0,6.0,78,0.00,,,0.00,114,Wunderground v.1.15,2013-02-24 15:06:00,
2013-02-24 08:12:00,13.6,8.0,30.34,ESE,105,4.0,6.0,78,0.00,,,0.00,125,Wunderground v.1.15,2013-02-24 15:12:00,
2013-02-24 08:18:00,15.2,9.0,30.34,East,90,5.0,6.0,76,0.00,,,0.00,132,Wunderground v.1.15,2013-02-24 15:18:00,
2013-02-24 08:24:00,16.5,10.0,30.34,ENE,69,5.0,6.0,75,0.00,,,0.00,149,Wunderground v.1.15,2013-02-24 15:24:00,
2013-02-24 08:30:00,18.2,10.7,30.33,ENE,58,5.0,5.0,72,0.00,,,0.00,165,Wunderground v.1.15,2013-02-24 15:30:00,
2013-02-24 08:36:00,19.8,10.9,30.35,ENE,70,5.0,7.0,68,0.00,,,0.00,185,Wunderground v.1.15,2013-02-24 15:36:00,
2013-02-24 08:42:00,20.9,11.3,30.35,NE,47,4.0,8.0,66,0.00,,,0.00,202,Wunderground v.1.15,2013-02-24 15:42:00,
2013-02-24 08:48:00,21.5,10.8,30.35,NE,50,5.0,8.0,63,0.00,,,0.00,207,Wunderground v.1.15,2013-02-24 15:48:00,
2013-02-24 08:54:00,22.3,11.6,30.35,NE,54,5.0,7.0,63,0.00,,,0.00,243,Wunderground v.1.15,2013-02-24 15:54:00,
2013-02-24 09:00:00,23.3,11.8,30.34,NE,52,6.0,6.0,61,0.00,,,0.00,276,Wunderground v.1.15,2013-02-24 16:00:00,
2013-02-24 09:06:00,24.0,11.3,30.34,ENE,57,7.0,10.0,58,0.00,,,0.00,292,Wunderground v.1.15,2013-02-24 16:06:00,
2013-02-24 09:12:00,24.8,12.1,30.35,NE,51,7.0,7.0,58,0.00,,,0.00,304,Wunderground v.1.15,2013-02-24 16:12:00,
2013-02-24 09:18:00,25.5,12.0,30.35,NE,52,5.0,7.0,56,0.00,,,0.00,308,Wunderground v.1.15,2013-02-24 16:18:00,
2013-02-24 09:24:00,25.8,11.8,30.35,NE,55,5.0,6.0,55,0.00,,,0.00,329,Wunderground v.1.15,2013-02-24 16:24:00,
2013-02-24 09:32:00,26.3,11.9,30.35,NE,55,5.0,6.0,54,0.00,,,0.00,352,Wunderground v.1.15,2013-02-24 16:32:00,
2013-02-24 09:38:00,27.0,12.1,30.35,ENE,57,5.0,6.0,53,0.00,,,0.00,366,Wunderground v.1.15,2013-02-24 16:38:00,
2013-02-24 09:44:00,27.4,11.6,30.35,ENE,57,5.0,7.0,51,0.00,,,0.00,385,Wunderground v.1.15,2013-02-24 16:44:00,
2013-02-24 09:50:00,27.5,11.7,30.35,ENE,57,6.0,6.0,51,0.00,,,0.00,396,Wunderground v.1.15,2013-02-24 16:50:00,
2013-02-24 09:56:00,28.1,11.8,30.35,ENE,63,6.0,6.0,50,0.00,,,0.00,411,Wunderground v.1.15,2013-02-24 16:56:00,
2013-02-24 10:02:00,28.7,11.9,30.35,NE,53,5.0,8.0,49,0.00,,,0.00,431,Wunderground v.1.15,2013-02-24 17:02:00,
2013-02-24 10:08:00,29.0,11.7,30.34,ENE,57,6.0,8.0,48,0.00,,,0.00,452,Wunderground v.1.15,2013-02-24 17:08:00,
2013-02-24 10:14:00,29.2,11.0,30.34,NE,39,6.0,7.0,46,0.00,,,0.00,290,Wunderground v.1.15,2013-02-24 17:14:00,
2013-02-24 10:20:00,29.4,11.6,30.34,NE,48,6.0,6.0,47,0.00,,,0.00,478,Wunderground v.1.15,2013-02-24 17:20:00,
2013-02-24 10:26:00,29.8,12.0,30.34,NE,53,7.0,7.0,47,0.00,,,0.00,487,Wunderground v.1.15,2013-02-24 17:26:00,
2013-02-24 10:32:00,31.1,12.7,30.35,NE,53,5.0,6.0,46,0.00,,,0.00,519,Wunderground v.1.15,2013-02-24 17:32:00,
2013-02-24 10:38:00,31.5,12.1,30.34,NE,47,5.0,6.0,44,0.00,,,0.00,517,Wunderground v.1.15,2013-02-24 17:38:00,
2013-02-24 10:44:00,31.6,11.6,30.34,NE,52,6.0,8.0,43,0.00,,,0.00,527,Wunderground v.1.15,2013-02-24 17:44:00,
2013-02-24 10:50:00,32.5,12.5,30.33,ENE,58,7.0,11.0,43,0.00,,,0.00,538,Wunderground v.1.15,2013-02-24 17:50:00,
2013-02-24 10:56:00,32.5,11.9,30.33,NE,52,7.0,11.0,42,0.00,,,0.00,550,Wunderground v.1.15,2013-02-24 17:56:00,
2013-02-24 11:02:00,32.9,11.7,30.33,ENE,57,6.0,6.0,41,0.00,,,0.00,578,Wunderground v.1.15,2013-02-24 18:02:00,
2013-02-24 11:08:00,32.8,11.6,30.33,ESE,111,5.0,6.0,41,0.00,,,0.00,589,Wunderground v.1.15,2013-02-24 18:08:00,
2013-02-24 11:14:00,33.3,11.5,30.33,SE,136,3.0,5.0,40,0.00,,,0.00,594,Wunderground v.1.15,2013-02-24 18:14:00,
2013-02-24 11:20:00,33.5,12.3,30.33,SE,134,4.0,7.0,41,0.00,,,0.00,603,Wunderground v.1.15,2013-02-24 18:20:00,
2013-02-24 11:26:00,33.3,12.6,30.33,SE,132,9.0,11.0,42,0.00,,,0.00,605,Wunderground v.1.15,2013-02-24 18:26:00,
2013-02-24 11:32:00,33.5,11.7,30.33,SSE,167,11.0,16.0,40,0.00,,,0.00,610,Wunderground v.1.15,2013-02-24 18:32:00,
2013-02-24 11:38:00,33.3,11.5,30.33,South,170,13.0,16.0,40,0.00,,,0.00,626,Wunderground v.1.15,2013-02-24 18:38:00,
2013-02-24 11:44:00,33.8,12.6,30.33,SSE,155,12.0,16.0,41,0.00,,,0.00,647,Wunderground v.1.15,2013-02-24 18:44:00,
2013-02-24 11:50:00,33.4,11.6,30.32,SE,146,12.0,12.0,40,0.00,,,0.00,599,Wunderground v.1.15,2013-02-24 18:50:00,
2013-02-24 11:56:00,33.4,12.2,30.32,South,186,13.0,18.0,41,0.00,,,0.00,636,Wunderground v.1.15,2013-02-24 18:56:00,
2013-02-24 12:02:00,34.1,12.3,30.32,South,182,11.0,12.0,40,0.00,,,0.00,684,Wunderground v.1.15,2013-02-24 19:02:00,
2013-02-24 12:08:00,33.5,12.3,30.32,SSE,150,11.0,12.0,41,0.00,,,0.00,652,Wunderground v.1.15,2013-02-24 19:08:00,
2013-02-24 12:14:00,34.4,12.0,30.31,South,172,10.0,12.0,39,0.00,,,0.00,684,Wunderground v.1.15,2013-02-24 19:14:00,
2013-02-24 12:20:00,34.1,12.3,30.31,SSE,148,11.0,11.0,40,0.00,,,0.00,659,Wunderground v.1.15,2013-02-24 19:20:00,
2013-02-24 12:26:00,34.5,12.1,30.31,South,187,12.0,13.0,39,0.00,,,0.00,666,Wunderground v.1.15,2013-02-24 19:26:00,
2013-02-24 12:32:00,34.7,11.6,30.31,SSE,167,12.0,15.0,38,0.00,,,0.00,684,Wunderground v.1.15,2013-02-24 19:32:00,
2013-02-24 12:38:00,34.7,12.2,30.30,South,181,12.0,15.0,39,0.00,,,0.00,684,Wunderground v.1.15,2013-02-24 19:38:00,
2013-02-24 12:44:00,35.1,12.0,30.30,SSE,162,12.0,17.0,38,0.00,,,0.00,682,Wunderground v.1.15,2013-02-24 19:44:00,
2013-02-24 12:50:00,35.4,12.3,30.30,South,182,13.0,15.0,38,0.00,,,0.00,698,Wunderground v.1.15,2013-02-24 19:50:00,
2013-02-24 12:56:00,34.7,11.6,30.29,SSE,157,12.0,15.0,38,0.00,,,0.00,710,Wunderground v.1.15,2013-02-24 19:56:00,
2013-02-24 13:02:00,34.7,11.0,30.29,SSE,147,11.0,11.0,37,0.00,,,0.00,158,Wunderground v.1.15,2013-02-24 20:02:00,
2013-02-24 13:08:00,34.4,12.0,30.29,SSW,200,12.0,15.0,39,0.00,,,0.00,708,Wunderground v.1.15,2013-02-24 20:08:00,
2013-02-24 13:14:00,35.0,11.3,30.29,SSE,157,13.0,15.0,37,0.00,,,0.00,691,Wunderground v.1.15,2013-02-24 20:14:00,
2013-02-24 13:20:00,35.3,11.6,30.29,South,175,14.0,14.0,37,0.00,,,0.00,183,Wunderground v.1.15,2013-02-24 20:20:00,
2013-02-24 13:26:00,33.9,10.9,30.28,SSW,198,13.0,15.0,38,0.00,,,0.00,148,Wunderground v.1.15,2013-02-24 20:26:00,
2013-02-24 13:32:00,33.9,10.9,30.28,South,173,13.0,15.0,38,0.00,,,0.00,721,Wunderground v.1.15,2013-02-24 20:32:00,
2013-02-24 13:38:00,34.4,11.4,30.29,SSW,200,13.0,16.0,38,0.00,,,0.00,209,Wunderground v.1.15,2013-02-24 20:38:00,
2013-02-24 13:44:00,34.4,12.0,30.28,SSE,157,14.0,15.0,39,0.00,,,0.00,714,Wunderground v.1.15,2013-02-24 20:44:00,
2013-02-24 13:50:00,34.6,12.7,30.28,South,177,14.0,14.0,40,0.00,,,0.00,687,Wunderground v.1.15,2013-02-24 20:50:00,
2013-02-24 13:56:00,35.5,11.8,30.27,South,186,14.0,19.0,37,0.00,,,0.00,663,Wunderground v.1.15,2013-02-24 20:56:00,
2013-02-24 14:02:00,35.8,12.0,30.27,SSE,155,14.0,16.0,37,0.00,,,0.00,649,Wunderground v.1.15,2013-02-24 21:02:00,
2013-02-24 14:08:00,36.0,12.2,30.27,SSE,155,15.0,17.0,37,0.00,,,0.00,636,Wunderground v.1.15,2013-02-24 21:08:00,
2013-02-24 14:14:00,35.9,12.1,30.27,South,188,15.0,20.0,37,0.00,,,0.00,631,Wunderground v.1.15,2013-02-24 21:14:00,
2013-02-24 14:20:00,35.8,12.0,30.27,South,178,16.0,18.0,37,0.00,,,0.00,619,Wunderground v.1.15,2013-02-24 21:20:00,
2013-02-24 14:26:00,35.9,12.7,30.27,SSE,163,15.0,19.0,38,0.00,,,0.00,601,Wunderground v.1.15,2013-02-24 21:26:00,
2013-02-24 14:32:00,35.9,12.7,30.26,South,175,14.0,15.0,38,0.00,,,0.00,587,Wunderground v.1.15,2013-02-24 21:32:00,
2013-02-24 14:38:00,36.2,13.0,30.26,SSW,199,13.0,15.0,38,0.00,,,0.00,577,Wunderground v.1.15,2013-02-24 21:38:00,
2013-02-24 14:44:00,36.2,12.4,30.26,South,171,14.0,14.0,37,0.00,,,0.00,561,Wunderground v.1.15,2013-02-24 21:44:00,
2013-02-24 14:50:00,36.6,12.7,30.26,SSE,163,13.0,14.0,37,0.00,,,0.00,552,Wunderground v.1.15,2013-02-24 21:50:00,
2013-02-24 14:56:00,36.2,12.4,30.26,SSW,192,14.0,18.0,37,0.00,,,0.00,541,Wunderground v.1.15,2013-02-24 21:56:00,
2013-02-24 15:02:00,36.1,11.7,30.26,South,177,16.0,16.0,36,0.00,,,0.00,533,Wunderground v.1.15,2013-02-24 22:02:00,
2013-02-24 15:08:00,35.7,12.5,30.26,South,171,16.0,20.0,38,0.00,,,0.00,524,Wunderground v.1.15,2013-02-24 22:08:00,
2013-02-24 15:14:00,35.7,11.9,30.26,SSW,201,16.0,16.0,37,0.00,,,0.00,499,Wunderground v.1.15,2013-02-24 22:14:00,
2013-02-24 15:20:00,35.6,11.9,30.26,SSE,157,15.0,18.0,37,0.00,,,0.00,487,Wunderground v.1.15,2013-02-24 22:20:00,
2013-02-24 15:26:00,35.4,12.3,30.26,SSE,161,15.0,18.0,38,0.00,,,0.00,462,Wunderground v.1.15,2013-02-24 22:26:00,
2013-02-24 15:32:00,35.2,12.1,30.26,South,175,14.0,15.0,38,0.00,,,0.00,443,Wunderground v.1.15,2013-02-24 22:32:00,
2013-02-24 15:38:00,35.0,12.5,30.26,SSW,197,14.0,16.0,39,0.00,,,0.00,413,Wunderground v.1.15,2013-02-24 22:38:00,
2013-02-24 15:44:00,35.1,12.6,30.26,South,171,15.0,16.0,39,0.00,,,0.00,455,Wunderground v.1.15,2013-02-24 22:44:00,
2013-02-24 15:50:00,35.2,12.7,30.26,South,176,16.0,16.0,39,0.00,,,0.00,454,Wunderground v.1.15,2013-02-24 22:50:00,
2013-02-24 15:56:00,35.3,13.3,30.25,South,190,15.0,16.0,40,0.00,,,0.00,397,Wunderground v.1.15,2013-02-24 22:56:00,
2013-02-24 16:02:00,35.0,13.1,30.25,South,169,14.0,14.0,40,0.00,,,0.00,346,Wunderground v.1.15,2013-02-24 23:02:00,
2013-02-24 16:08:00,34.5,12.6,30.25,South,181,15.0,15.0,40,0.00,,,0.00,346,Wunderground v.1.15,2013-02-24 23:08:00,
2013-02-24 16:14:00,34.3,13.0,30.25,SSW,193,14.0,20.0,41,0.00,,,0.00,281,Wunderground v.1.15,2013-02-24 23:14:00,
2013-02-24 16:20:00,34.2,12.9,30.25,South,182,13.0,15.0,41,0.00,,,0.00,316,Wunderground v.1.15,2013-02-24 23:20:00,
2013-02-24 16:26:00,34.2,12.9,30.25,South,186,13.0,17.0,41,0.00,,,0.00,276,Wunderground v.1.15,2013-02-24 23:26:00,
2013-02-24 16:32:00,34.1,12.3,30.25,South,184,12.0,15.0,40,0.00,,,0.00,98,Wunderground v.1.15,2013-02-24 23:32:00,
2013-02-24 16:38:00,33.6,12.4,30.24,SSW,197,12.0,15.0,41,0.00,,,0.00,151,Wunderground v.1.15,2013-02-24 23:38:00,
2013-02-24 16:44:00,33.5,12.8,30.24,SSE,167,11.0,12.0,42,0.00,,,0.00,123,Wunderground v.1.15,2013-02-24 23:44:00,
2013-02-24 16:50:00,33.6,12.9,30.24,South,183,12.0,16.0,42,0.00,,,0.00,128,Wunderground v.1.15,2013-02-24 23:50:00,
2013-02-24 16:56:00,33.6,12.4,30.24,South,178,14.0,16.0,41,0.00,,,0.00,229,Wunderground v.1.15,2013-02-24 23:56:00,
2013-02-24 17:02:00,33.6,12.4,30.24,South,182,14.0,14.0,41,0.00,,,0.00,156,Wunderground v.1.15,2013-02-25 00:02:00,
2013-02-24 17:08:00,33.4,12.7,30.25,South,169,13.0,14.0,42,0.00,,,0.00,120,Wunderground v.1.15,2013-02-25 00:08:00,
2013-02-24 17:14:00,32.9,12.8,30.24,South,177,11.0,15.0,43,0.00,,,0.00,88,Wunderground v.1.15,2013-02-25 00:14:00,
2013-02-24 17:20:00,32.5,12.5,30.25,South,182,12.0,12.0,43,0.00,,,0.00,69,Wunderground v.1.15,2013-02-25 00:20:00,
2013-02-24 17:26:00,32.2,12.7,30.24,South,174,11.0,12.0,44,0.00,,,0.00,58,Wunderground v.1.15,2013-02-25 00:26:00,
2013-02-24 17:32:00,31.9,12.9,30.24,South,171,11.0,12.0,45,0.00,,,0.00,53,Wunderground v.1.15,2013-02-25 00:32:00,
2013-02-24 17:38:00,31.7,12.8,30.25,SSE,157,11.0,14.0,45,0.00,,,0.00,44,Wunderground v.1.15,2013-02-25 00:38:00,
2013-02-24 17:44:00,31.6,13.2,30.25,South,173,12.0,16.0,46,0.00,,,0.00,30,Wunderground v.1.15,2013-02-25 00:44:00,
2013-02-24 17:50:00,31.5,13.1,30.25,South,186,12.0,12.0,46,0.00,,,0.00,21,Wunderground v.1.15,2013-02-25 00:50:00,
2013-02-24 17:56:00,31.3,13.4,30.25,South,190,11.0,12.0,47,0.00,,,0.00,16,Wunderground v.1.15,2013-02-25 00:56:00,
2013-02-24 18:02:00,31.1,13.2,30.25,South,190,10.0,14.0,47,0.00,,,0.00,9,Wunderground v.1.15,2013-02-25 01:02:00,
2013-02-24 18:08:00,30.9,13.5,30.25,South,179,9.0,14.0,48,0.00,,,0.00,5,Wunderground v.1.15,2013-02-25 01:08:00,
2013-02-24 18:14:00,30.7,13.3,30.24,South,178,9.0,9.0,48,0.00,,,0.00,0,Wunderground v.1.15,2013-02-25 01:14:00,
2013-02-24 18:20:00,30.6,13.7,30.24,South,184,7.0,7.0,49,0.00,,,0.00,0,Wunderground v.1.15,2013-02-25 01:20:00,
2013-02-24 18:26:00,30.5,13.6,30.24,South,184,7.0,7.0,49,0.00,,,0.00,0,Wunderground v.1.15,2013-02-25 01:26:00,
2013-02-24 18:32:00,30.3,13.4,30.24,South,178,7.0,8.0,49,0.00,,,0.00,0,Wunderground v.1.15,2013-02-25 01:32:00,
2013-02-24 18:38:00,30.1,13.7,30.24,South,171,6.0,8.0,50,0.00,,,0.00,0,Wunderground v.1.15,2013-02-25 01:38:00,
2013-02-24 18:44:00,29.7,13.8,30.23,South,169,5.0,5.0,51,0.00,,,0.00,0,Wunderground v.1.15,2013-02-25 01:44:00,
2013-02-24 18:50:00,29.5,14.0,30.23,South,171,5.0,5.0,52,0.00,,,0.00,0,Wunderground v.1.15,2013-02-25 01:50:00,
2013-02-24 18:56:00,29.6,14.1,30.24,SSE,158,5.0,6.0,52,0.00,,,0.00,0,Wunderground v.1.15,2013-02-25 01:56:00,
2013-02-24 19:02:00,29.8,13.9,30.24,SSE,157,5.0,5.0,51,0.00,,,0.00,0,Wunderground v.1.15,2013-02-25 02:02:00,
2013-02-24 19:08:00,29.6,13.7,30.23,SSE,158,2.0,5.0,51,0.00,,,0.00,0,Wunderground v.1.15,2013-02-25 02:08:00,
2013-02-24 19:14:00,29.2,13.7,30.23,SSE,157,2.0,2.0,52,0.00,,,0.00,0,Wunderground v.1.15,2013-02-25 02:14:00,
2013-02-24 19:20:00,28.8,14.2,30.24,SSE,157,2.0,2.0,54,0.00,,,0.00,0,Wunderground v.1.15,2013-02-25 02:20:00,
2013-02-24 19:26:00,28.4,13.9,30.23,SSE,157,1.0,2.0,54,0.00,,,0.00,0,Wunderground v.1.15,2013-02-25 02:26:00,
2013-02-24 19:32:00,28.4,13.9,30.23,SSE,157,1.0,3.0,54,0.00,,,0.00,0,Wunderground v.1.15,2013-02-25 02:32:00,
2013-02-24 19:38:00,28.7,14.1,30.24,SSE,157,3.0,5.0,54,0.00,,,0.00,0,Wunderground v.1.15,2013-02-25 02:38:00,
2013-02-24 19:44:00,28.7,13.7,30.24,SSE,157,2.0,3.0,53,0.00,,,0.00,0,Wunderground v.1.15,2013-02-25 02:44:00,
2013-02-24 19:50:00,28.4,13.9,30.24,SSE,157,0.0,0.0,54,0.00,,,0.00,0,Wunderground v.1.15,2013-02-25 02:50:00,
2013-02-24 19:56:00,28.3,14.6,30.24,SSE,157,0.0,0.0,56,0.00,,,0.00,0,Wunderground v.1.15,2013-02-25 02:56:00,
2013-02-24 20:02:00,28.3,14.6,30.25,SSE,157,0.0,0.0,56,0.00,,,0.00,0,Wunderground v.1.15,2013-02-25 03:02:00,
2013-02-24 20:08:00,28.2,14.1,30.24,SSE,157,0.0,0.0,55,0.00,,,0.00,0,Wunderground v.1.15,2013-02-25 03:08:00,
2013-02-24 20:14:00,28.0,13.5,30.24,SSE,157,0.0,0.0,54,0.00,,,0.00,0,Wunderground v.1.15,2013-02-25 03:14:00,
2013-02-24 20:20:00,27.8,13.7,30.24,SSE,157,0.0,0.0,55,0.00,,,0.00,0,Wunderground v.1.15,2013-02-25 03:20:00,
2013-02-24 20:26:00,27.6,14.3,30.24,SSE,157,0.0,0.0,57,0.00,,,0.00,0,Wunderground v.1.15,2013-02-25 03:26:00,
2013-02-24 20:32:00,26.8,12.8,30.24,SSE,157,0.0,0.0,55,0.00,,,0.00,0,Wunderground v.1.15,2013-02-25 03:32:00,
2013-02-24 20:38:00,26.1,12.5,30.24,SSE,157,0.0,0.0,56,0.00,,,0.00,0,Wunderground v.1.15,2013-02-25 03:38:00,
2013-02-24 20:44:00,25.1,12.0,30.24,SSE,157,0.0,0.0,57,0.00,,,0.00,0,Wunderground v.1.15,2013-02-25 03:44:00,
2013-02-24 20:50:00,24.6,12.3,30.24,SSE,157,0.0,0.0,59,0.00,,,0.00,0,Wunderground v.1.15,2013-02-25 03:50:00,
2013-02-24 20:56:00,24.7,13.1,30.24,SSE,157,0.0,0.0,61,0.00,,,0.00,0,Wunderground v.1.15,2013-02-25 03:56:00,
2013-02-24 21:02:00,25.3,13.7,30.24,SSE,157,0.0,0.0,61,0.00,,,0.00,0,Wunderground v.1.15,2013-02-25 04:02:00,
2013-02-24 21:16:00,27.0,14.6,30.24,ESE,115,3.0,10.0,59,0.00,,,0.00,0,Wunderground v.1.15,2013-02-25 04:16:00,
2013-02-24 21:22:00,27.6,14.7,30.24,SE,133,5.0,5.0,58,0.00,,,0.00,0,Wunderground v.1.15,2013-02-25 04:22:00,
2013-02-24 21:28:00,27.8,14.5,30.24,SE,132,4.0,5.0,57,0.00,,,0.00,0,Wunderground v.1.15,2013-02-25 04:28:00,
2013-02-24 21:34:00,27.8,14.9,30.23,SE,144,4.0,7.0,58,0.00,,,0.00,0,Wunderground v.1.15,2013-02-25 04:34:00,
2013-02-24 21:40:00,27.9,14.6,30.24,SE,130,5.0,7.0,57,0.00,,,0.00,0,Wunderground v.1.15,2013-02-25 04:40:00,
2013-02-24 21:46:00,27.9,14.6,30.23,SE,140,5.0,7.0,57,0.00,,,0.00,0,Wunderground v.1.15,2013-02-25 04:46:00,
2013-02-24 21:52:00,27.8,14.5,30.24,SE,139,4.0,4.0,57,0.00,,,0.00,0,Wunderground v.1.15,2013-02-25 04:52:00,
2013-02-24 21:58:00,27.7,14.4,30.23,ESE,123,4.0,5.0,57,0.00,,,0.00,0,Wunderground v.1.15,2013-02-25 04:58:00,
2013-02-24 22:00:00,27.6,14.3,30.23,ESE,123,4.0,5.0,57,0.00,,,0.00,0,Wunderground v.1.15,2013-02-25 05:00:00,
2013-02-24 22:08:00,27.5,14.2,30.23,SE,128,4.0,5.0,57,0.00,,,0.00,0,Wunderground v.1.15,2013-02-25 05:08:00,
2013-02-24 22:12:00,27.4,14.1,30.23,SE,128,3.0,4.0,57,0.00,,,0.00,0,Wunderground v.1.15,2013-02-25 05:12:00,
2013-02-24 22:18:00,27.1,13.9,30.23,SE,127,1.0,4.0,57,0.00,,,0.00,0,Wunderground v.1.15,2013-02-25 05:18:00,
2013-02-24 22:24:00,26.9,14.1,30.23,SE,127,1.0,4.0,58,0.00,,,0.00,0,Wunderground v.1.15,2013-02-25 05:24:00,
2013-02-24 22:30:00,26.7,14.3,30.23,SE,127,2.0,3.0,59,0.00,,,0.00,0,Wunderground v.1.15,2013-02-25 05:30:00,
2013-02-24 22:36:00,26.6,14.6,30.23,ESE,115,3.0,6.0,60,0.00,,,0.00,0,Wunderground v.1.15,2013-02-25 05:36:00,
2013-02-24 22:42:00,26.6,14.6,30.23,SE,128,4.0,7.0,60,0.00,,,0.00,0,Wunderground v.1.15,2013-02-25 05:42:00,
2013-02-24 22:48:00,26.8,14.8,30.23,ESE,118,5.0,7.0,60,0.00,,,0.00,0,Wunderground v.1.15,2013-02-25 05:48:00,
2013-02-24 22:54:00,27.0,14.9,30.23,East,101,5.0,6.0,60,0.00,,,0.00,0,Wunderground v.1.15,2013-02-25 05:54:00,
2013-02-24 23:00:00,27.2,14.8,30.22,ESE,115,7.0,7.0,59,0.00,,,0.00,0,Wunderground v.1.15,2013-02-25 06:00:00,
2013-02-24 23:06:00,27.3,14.8,30.21,ESE,117,7.0,11.0,59,0.00,,,0.00,0,Wunderground v.1.15,2013-02-25 06:06:00,
2013-02-24 23:12:00,27.2,14.8,30.21,East,84,6.0,6.0,59,0.00,,,0.00,0,Wunderground v.1.15,2013-02-25 06:12:00,
2013-02-24 23:18:00,27.2,14.8,30.21,SE,130,6.0,7.0,59,0.00,,,0.00,0,Wunderground v.1.15,2013-02-25 06:18:00,
2013-02-24 23:24:00,27.2,14.8,30.21,SE,132,6.0,6.0,59,0.00,,,0.00,0,Wunderground v.1.15,2013-02-25 06:24:00,
2013-02-24 23:30:00,27.2,14.4,30.22,ESE,123,7.0,7.0,58,0.00,,,0.00,0,Wunderground v.1.15,2013-02-25 06:30:00,
2013-02-24 23:36:00,27.1,14.3,30.21,ESE,113,6.0,7.0,58,0.00,,,0.00,0,Wunderground v.1.15,2013-02-25 06:36:00,
2013-02-24 23:42:00,26.8,14.0,30.21,ESE,111,4.0,5.0,58,0.00,,,0.00,0,Wunderground v.1.15,2013-02-25 06:42:00,
2013-02-24 23:48:00,26.0,13.2,30.21,ENE,69,2.0,5.0,58,0.00,,,0.00,0,Wunderground v.1.15,2013-02-25 06:48:00,
2013-02-24 23:54:00,25.4,13.1,30.21,ENE,78,2.0,5.0,59,0.00,,,0.00,0,Wunderground v.1.15,2013-02-25 06:54:00,